sensor_id;sensor_type;location;lat;lon;timestamp;pressure;altitude;pressure_sealevel;temperature;humidity
52983;BME280;48698;45.736;13.926;2023-02-14T00:04:54;99121.56;;;-2.59;100.00
52983;BME280;48698;45.736;13.926;2023-02-14T00:09:58;99326.81;;;-2.03;100.00
52983;BME280;48698;45.736;13.926;2023-02-14T00:15:02;99108.16;;;-2.75;100.00
52983;BME280;48698;45.736;13.926;2023-02-14T00:20:26;99339.63;;;-1.75;100.00
52983;BME280;48698;45.736;13.926;2023-02-14T00:25:29;99229.94;;;-2.26;100.00
52983;BME280;48698;45.736;13.926;2023-02-14T00:30:33;99338.00;;;-1.34;100.00
52983;BME280;48698;45.736;13.926;2023-02-14T00:35:37;99328.81;;;-1.56;100.00
52983;BME280;48698;45.736;13.926;2023-02-14T00:40:41;99261.09;;;-2.27;100.00
52983;BME280;48698;45.736;13.926;2023-02-14T00:45:44;99343.81;;;-1.81;100.00
52983;BME280;48698;45.736;13.926;2023-02-14T00:50:48;99258.78;;;-2.15;100.00
52983;BME280;48698;45.736;13.926;2023-02-14T00:55:52;99007.28;;;-3.92;100.00
52983;BME280;48698;45.736;13.926;2023-02-14T01:00:55;99325.94;;;-2.02;100.00
52983;BME280;48698;45.736;13.926;2023-02-14T01:05:59;99302.53;;;-2.35;100.00
52983;BME280;48698;45.736;13.926;2023-02-14T01:11:16;99069.72;;;-3.22;100.00
52983;BME280;48698;45.736;13.926;2023-02-14T01:16:21;99404.91;;;-1.34;100.00
52983;BME280;48698;45.736;13.926;2023-02-14T01:21:28;99405.84;;;-1.31;100.00
52983;BME280;48698;45.736;13.926;2023-02-14T01:26:34;99305.38;;;-1.91;100.00
52983;BME280;48698;45.736;13.926;2023-02-14T01:31:37;99102.56;;;-3.87;100.00
52983;BME280;48698;45.736;13.926;2023-02-14T01:36:41;99298.69;;;-2.16;100.00
52983;BME280;48698;45.736;13.926;2023-02-14T01:41:46;99148.47;;;-2.57;100.00
52983;BME280;48698;45.736;13.926;2023-02-14T01:46:54;99209.88;;;-2.28;100.00
52983;BME280;48698;45.736;13.926;2023-02-14T01:57:08;99357.84;;;-1.40;100.00
52983;BME280;48698;45.736;13.926;2023-02-14T02:02:15;99298.78;;;-2.13;100.00
52983;BME280;48698;45.736;13.926;2023-02-14T02:07:26;99346.03;;;-1.62;100.00
52983;BME280;48698;45.736;13.926;2023-02-14T02:12:33;99074.38;;;-3.75;100.00
52983;BME280;48698;45.736;13.926;2023-02-14T02:28:38;99337.25;;;-1.66;100.00
52983;BME280;48698;45.736;13.926;2023-02-14T02:34:57;99212.66;;;-2.56;100.00
52983;BME280;48698;45.736;13.926;2023-02-14T02:39:48;99331.13;;;-1.68;100.00
52983;BME280;48698;45.736;13.926;2023-02-14T02:50:24;99207.75;;;-2.44;100.00
52983;BME280;48698;45.736;13.926;2023-02-14T02:55:54;99220.00;;;-2.40;100.00
52983;BME280;48698;45.736;13.926;2023-02-14T03:01:37;99318.94;;;-1.69;100.00
52983;BME280;48698;45.736;13.926;2023-02-14T03:06:45;99315.16;;;-1.83;100.00
52983;BME280;48698;45.736;13.926;2023-02-14T03:12:11;99046.75;;;-3.40;100.00
52983;BME280;48698;45.736;13.926;2023-02-14T03:23:01;99000.53;;;-3.84;100.00
52983;BME280;48698;45.736;13.926;2023-02-14T03:39:06;99278.78;;;-1.78;100.00
52983;BME280;48698;45.736;13.926;2023-02-14T03:44:17;99303.16;;;-1.76;100.00
52983;BME280;48698;45.736;13.926;2023-02-14T03:49:25;99058.03;;;-3.38;100.00
52983;BME280;48698;45.736;13.926;2023-02-14T03:54:30;99308.19;;;-1.82;100.00
52983;BME280;48698;45.736;13.926;2023-02-14T03:59:36;99303.19;;;-1.75;100.00
52983;BME280;48698;45.736;13.926;2023-02-14T04:04:45;99301.19;;;-1.85;100.00
52983;BME280;48698;45.736;13.926;2023-02-14T04:09:50;99305.28;;;-1.59;100.00
52983;BME280;48698;45.736;13.926;2023-02-14T04:14:54;99297.00;;;-1.80;100.00
52983;BME280;48698;45.736;13.926;2023-02-14T04:19:58;99009.22;;;-3.51;100.00
52983;BME280;48698;45.736;13.926;2023-02-14T04:25:01;98978.34;;;-3.75;100.00
52983;BME280;48698;45.736;13.926;2023-02-14T04:30:05;99195.50;;;-2.48;100.00
52983;BME280;48698;45.736;13.926;2023-02-14T04:35:10;99262.44;;;-2.09;100.00
52983;BME280;48698;45.736;13.926;2023-02-14T04:40:13;99229.47;;;-2.08;100.00
52983;BME280;48698;45.736;13.926;2023-02-14T04:45:19;99269.44;;;-1.69;100.00
52983;BME280;48698;45.736;13.926;2023-02-14T04:50:23;98994.38;;;-3.22;100.00
52983;BME280;48698;45.736;13.926;2023-02-14T04:55:28;99136.13;;;-2.30;100.00
52983;BME280;48698;45.736;13.926;2023-02-14T05:00:31;99264.50;;;-1.58;100.00
52983;BME280;48698;45.736;13.926;2023-02-14T05:05:35;99189.38;;;-2.16;100.00
52983;BME280;48698;45.736;13.926;2023-02-14T05:10:38;99180.06;;;-2.06;100.00
52983;BME280;48698;45.736;13.926;2023-02-14T05:15:52;99257.59;;;-1.56;100.00
52983;BME280;48698;45.736;13.926;2023-02-14T05:20:55;99265.94;;;-1.32;100.00
52983;BME280;48698;45.736;13.926;2023-02-14T05:26:00;99240.59;;;-0.97;100.00
52983;BME280;48698;45.736;13.926;2023-02-14T05:31:03;98959.72;;;-2.46;100.00
52983;BME280;48698;45.736;13.926;2023-02-14T05:36:07;99255.03;;;-0.71;100.00
52983;BME280;48698;45.736;13.926;2023-02-14T05:41:10;99187.88;;;-0.79;100.00
52983;BME280;48698;45.736;13.926;2023-02-14T05:46:14;99168.00;;;-1.19;100.00
52983;BME280;48698;45.736;13.926;2023-02-14T05:51:18;99183.13;;;-1.03;100.00
52983;BME280;48698;45.736;13.926;2023-02-14T05:56:22;98970.75;;;-2.16;100.00
52983;BME280;48698;45.736;13.926;2023-02-14T06:01:25;99238.63;;;-0.64;100.00
52983;BME280;48698;45.736;13.926;2023-02-14T06:06:29;99252.53;;;-0.15;100.00
52983;BME280;48698;45.736;13.926;2023-02-14T06:11:32;99236.03;;;0.44;100.00
52983;BME280;48698;45.736;13.926;2023-02-14T06:16:46;99267.09;;;0.85;100.00
52983;BME280;48698;45.736;13.926;2023-02-14T06:21:50;99231.19;;;0.72;100.00
52983;BME280;48698;45.736;13.926;2023-02-14T06:26:53;99252.25;;;0.84;100.00
52983;BME280;48698;45.736;13.926;2023-02-14T06:31:57;99011.25;;;-0.28;100.00
52983;BME280;48698;45.736;13.926;2023-02-14T06:37:07;99002.47;;;-0.34;100.00
52983;BME280;48698;45.736;13.926;2023-02-14T06:42:11;99263.22;;;2.14;100.00
52983;BME280;48698;45.736;13.926;2023-02-14T06:47:15;99158.53;;;1.26;100.00
52983;BME280;48698;45.736;13.926;2023-02-14T06:52:18;99244.63;;;1.86;100.00
52983;BME280;48698;45.736;13.926;2023-02-14T06:57:22;99171.56;;;1.19;100.00
52983;BME280;48698;45.736;13.926;2023-02-14T07:02:25;99248.81;;;1.66;100.00
52983;BME280;48698;45.736;13.926;2023-02-14T07:07:29;99249.16;;;2.05;100.00
52983;BME280;48698;45.736;13.926;2023-02-14T07:12:33;98991.53;;;0.78;100.00
52983;BME280;48698;45.736;13.926;2023-02-14T07:17:37;99241.78;;;2.77;100.00
52983;BME280;48698;45.736;13.926;2023-02-14T07:22:41;99240.22;;;3.32;100.00
52983;BME280;48698;45.736;13.926;2023-02-14T07:27:45;99235.88;;;3.38;100.00
52983;BME280;48698;45.736;13.926;2023-02-14T07:32:48;99219.31;;;3.67;100.00
52983;BME280;48698;45.736;13.926;2023-02-14T07:37:52;99121.22;;;3.37;100.00
52983;BME280;48698;45.736;13.926;2023-02-14T07:42:57;99229.81;;;3.98;100.00
52983;BME280;48698;45.736;13.926;2023-02-14T07:48:00;99235.09;;;3.94;100.00
52983;BME280;48698;45.736;13.926;2023-02-14T07:53:04;99107.19;;;3.17;100.00
52983;BME280;48698;45.736;13.926;2023-02-14T07:58:08;99108.94;;;3.51;100.00
52983;BME280;48698;45.736;13.926;2023-02-14T08:03:12;99115.97;;;3.48;100.00
52983;BME280;48698;45.736;13.926;2023-02-14T08:08:15;99227.97;;;4.75;100.00
52983;BME280;48698;45.736;13.926;2023-02-14T08:13:19;99166.50;;;4.89;100.00
52983;BME280;48698;45.736;13.926;2023-02-14T08:18:23;99130.41;;;5.09;100.00
52983;BME280;48698;45.736;13.926;2023-02-14T08:23:26;99011.47;;;4.42;100.00
52983;BME280;48698;45.736;13.926;2023-02-14T08:28:30;99144.25;;;5.43;100.00
52983;BME280;48698;45.736;13.926;2023-02-14T08:33:35;99239.31;;;6.38;100.00
52983;BME280;48698;45.736;13.926;2023-02-14T08:38:41;99205.53;;;6.71;100.00
52983;BME280;48698;45.736;13.926;2023-02-14T08:43:46;99152.06;;;6.51;100.00
52983;BME280;48698;45.736;13.926;2023-02-14T08:48:50;99113.75;;;6.17;100.00
52983;BME280;48698;45.736;13.926;2023-02-14T08:53:55;99120.53;;;6.41;100.00
52983;BME280;48698;45.736;13.926;2023-02-14T08:58:58;99146.59;;;7.35;100.00
52983;BME280;48698;45.736;13.926;2023-02-14T09:04:02;98973.88;;;6.23;100.00
52983;BME280;48698;45.736;13.926;2023-02-14T09:09:06;99204.13;;;7.77;100.00
52983;BME280;48698;45.736;13.926;2023-02-14T09:14:09;99201.22;;;7.94;100.00
52983;BME280;48698;45.736;13.926;2023-02-14T09:19:13;99192.91;;;8.17;100.00
52983;BME280;48698;45.736;13.926;2023-02-14T09:24:17;99168.56;;;8.47;100.00
52983;BME280;48698;45.736;13.926;2023-02-14T09:29:20;99158.38;;;8.24;100.00
52983;BME280;48698;45.736;13.926;2023-02-14T09:34:26;99181.34;;;8.71;100.00
52983;BME280;48698;45.736;13.926;2023-02-14T09:39:29;99176.94;;;9.53;100.00
52983;BME280;48698;45.736;13.926;2023-02-14T09:44:37;99154.47;;;10.40;100.00
52983;BME280;48698;45.736;13.926;2023-02-14T09:49:52;98970.28;;;9.78;100.00
52983;BME280;48698;45.736;13.926;2023-02-14T09:54:59;99197.59;;;12.01;97.87
52983;BME280;48698;45.736;13.926;2023-02-14T10:00:20;99188.72;;;12.79;93.70
52983;BME280;48698;45.736;13.926;2023-02-14T10:05:33;99172.59;;;11.49;94.94
52983;BME280;48698;45.736;13.926;2023-02-14T10:10:41;99029.50;;;10.14;98.51
52983;BME280;48698;45.736;13.926;2023-02-14T10:15:48;99150.50;;;10.56;97.68
52983;BME280;48698;45.736;13.926;2023-02-14T10:20:57;99166.41;;;12.30;94.40
52983;BME280;48698;45.736;13.926;2023-02-14T10:26:11;99048.25;;;11.82;91.84
52983;BME280;48698;45.736;13.926;2023-02-14T10:31:18;99160.09;;;12.59;90.51
52983;BME280;48698;45.736;13.926;2023-02-14T10:41:55;99140.56;;;13.96;82.99
52983;BME280;48698;45.736;13.926;2023-02-14T10:57:33;99131.44;;;14.02;80.21
52983;BME280;48698;45.736;13.926;2023-02-14T11:02:42;99116.84;;;14.11;78.33
52983;BME280;48698;45.736;13.926;2023-02-14T11:07:47;99022.00;;;13.37;79.80
52983;BME280;48698;45.736;13.926;2023-02-14T11:12:51;99095.13;;;13.98;81.20
52983;BME280;48698;45.736;13.926;2023-02-14T11:18:08;99092.44;;;13.98;80.81
52983;BME280;48698;45.736;13.926;2023-02-14T11:23:18;98829.41;;;12.42;78.60
52983;BME280;48698;45.736;13.926;2023-02-14T11:28:22;99062.72;;;14.06;79.45
52983;BME280;48698;45.736;13.926;2023-02-14T11:33:40;99072.06;;;14.16;80.33
52983;BME280;48698;45.736;13.926;2023-02-14T11:38:54;99056.59;;;14.24;78.49
52983;BME280;48698;45.736;13.926;2023-02-14T11:44:13;98939.25;;;13.38;76.53
52983;BME280;48698;45.736;13.926;2023-02-14T11:49:32;99051.25;;;14.24;75.33
52983;BME280;48698;45.736;13.926;2023-02-14T11:54:40;99051.91;;;14.29;75.96
52983;BME280;48698;45.736;13.926;2023-02-14T11:59:46;99043.91;;;14.49;75.42
52983;BME280;48698;45.736;13.926;2023-02-14T12:05:03;98918.56;;;14.23;72.42
52983;BME280;48698;45.736;13.926;2023-02-14T12:10:17;98811.84;;;14.20;70.84
52983;BME280;48698;45.736;13.926;2023-02-14T12:20:39;99021.00;;;15.20;71.55
52983;BME280;48698;45.736;13.926;2023-02-14T12:25:49;98925.78;;;14.60;69.85
52983;BME280;48698;45.736;13.926;2023-02-14T12:30:54;98970.69;;;14.90;70.40
52983;BME280;48698;45.736;13.926;2023-02-14T12:41:41;98949.44;;;14.87;70.38
52983;BME280;48698;45.736;13.926;2023-02-14T12:47:19;98978.13;;;15.57;67.97
52983;BME280;48698;45.736;13.926;2023-02-14T12:52:32;98979.84;;;15.58;68.67
52983;BME280;48698;45.736;13.926;2023-02-14T13:14:08;98939.84;;;15.72;67.08
52983;BME280;48698;45.736;13.926;2023-02-14T13:25:00;98724.91;;;14.67;66.18
52983;BME280;48698;45.736;13.926;2023-02-14T13:30:16;98935.75;;;15.82;65.15
52983;BME280;48698;45.736;13.926;2023-02-14T13:35:22;98912.06;;;16.08;65.00
52983;BME280;48698;45.736;13.926;2023-02-14T13:40:28;98872.72;;;15.92;64.30
52983;BME280;48698;45.736;13.926;2023-02-14T13:50:59;98924.56;;;15.91;64.58
52983;BME280;48698;45.736;13.926;2023-02-14T14:01:42;98925.59;;;15.89;64.48
52983;BME280;48698;45.736;13.926;2023-02-14T14:17:48;98915.91;;;15.86;64.81
52983;BME280;48698;45.736;13.926;2023-02-14T14:22:56;98920.00;;;15.76;66.46
52983;BME280;48698;45.736;13.926;2023-02-14T14:28:20;98917.09;;;15.64;65.02
52983;BME280;48698;45.736;13.926;2023-02-14T14:33:32;98898.25;;;15.48;66.32
52983;BME280;48698;45.736;13.926;2023-02-14T14:38:48;98911.81;;;15.62;67.53
52983;BME280;48698;45.736;13.926;2023-02-14T14:43:57;98877.28;;;15.39;68.79
52983;BME280;48698;45.736;13.926;2023-02-14T14:49:01;98909.88;;;15.30;70.17
52983;BME280;48698;45.736;13.926;2023-02-14T14:54:17;98889.81;;;15.02;69.96
52983;BME280;48698;45.736;13.926;2023-02-14T15:04:32;98914.13;;;14.98;71.32
52983;BME280;48698;45.736;13.926;2023-02-14T15:09:37;98843.47;;;14.66;71.41
52983;BME280;48698;45.736;13.926;2023-02-14T15:14:48;98604.72;;;13.02;70.99
52983;BME280;48698;45.736;13.926;2023-02-14T15:19:59;98911.84;;;14.90;71.29
52983;BME280;48698;45.736;13.926;2023-02-14T15:25:15;98928.03;;;14.50;71.47
52983;BME280;48698;45.736;13.926;2023-02-14T15:30:24;98917.97;;;14.36;71.36
52983;BME280;48698;45.736;13.926;2023-02-14T15:35:33;98830.00;;;13.74;70.70
52983;BME280;48698;45.736;13.926;2023-02-14T15:40:39;98921.84;;;14.29;70.33
52983;BME280;48698;45.736;13.926;2023-02-14T15:45:46;98793.50;;;12.94;69.92
52983;BME280;48698;45.736;13.926;2023-02-14T15:51:02;98921.06;;;13.68;69.87
52983;BME280;48698;45.736;13.926;2023-02-14T15:56:17;98913.97;;;13.67;69.17
52983;BME280;48698;45.736;13.926;2023-02-14T16:01:21;98808.16;;;12.62;69.91
52983;BME280;48698;45.736;13.926;2023-02-14T16:06:44;98906.09;;;13.01;70.26
52983;BME280;48698;45.736;13.926;2023-02-14T16:11:51;98906.41;;;12.71;70.98
52983;BME280;48698;45.736;13.926;2023-02-14T16:17:12;98850.25;;;11.86;72.06
52983;BME280;48698;45.736;13.926;2023-02-14T16:22:28;98914.41;;;11.52;73.85
52983;BME280;48698;45.736;13.926;2023-02-14T16:27:44;98795.09;;;10.66;74.43
52983;BME280;48698;45.736;13.926;2023-02-14T16:32:48;98926.81;;;11.27;74.89
52983;BME280;48698;45.736;13.926;2023-02-14T16:37:52;98849.66;;;10.48;75.52
52983;BME280;48698;45.736;13.926;2023-02-14T16:42:56;98940.78;;;10.79;76.66
52983;BME280;48698;45.736;13.926;2023-02-14T16:48:01;98928.50;;;10.75;77.09
52983;BME280;48698;45.736;13.926;2023-02-14T16:53:10;98925.56;;;10.57;78.27
52983;BME280;48698;45.736;13.926;2023-02-14T16:58:14;98891.88;;;10.29;78.99
52983;BME280;48698;45.736;13.926;2023-02-14T17:03:19;98927.00;;;10.37;79.98
52983;BME280;48698;45.736;13.926;2023-02-14T17:08:23;98767.25;;;9.35;81.04
52983;BME280;48698;45.736;13.926;2023-02-14T17:13:27;98714.94;;;8.80;82.05
52983;BME280;48698;45.736;13.926;2023-02-14T17:18:34;98733.31;;;8.87;83.34
52983;BME280;48698;45.736;13.926;2023-02-14T17:23:38;98961.38;;;10.13;84.42
52983;BME280;48698;45.736;13.926;2023-02-14T17:28:41;98909.63;;;9.66;84.98
52983;BME280;48698;45.736;13.926;2023-02-14T17:33:45;98901.03;;;9.56;85.17
52983;BME280;48698;45.736;13.926;2023-02-14T17:38:51;98742.16;;;8.52;85.51
52983;BME280;48698;45.736;13.926;2023-02-14T17:43:55;98961.88;;;9.62;87.05
52983;BME280;48698;45.736;13.926;2023-02-14T17:49:02;98673.09;;;7.92;87.62
52983;BME280;48698;45.736;13.926;2023-02-14T17:54:05;98781.06;;;8.50;88.31
52983;BME280;48698;45.736;13.926;2023-02-14T17:59:10;98776.38;;;8.24;89.90
52983;BME280;48698;45.736;13.926;2023-02-14T18:04:13;98726.25;;;7.79;90.63
52983;BME280;48698;45.736;13.926;2023-02-14T18:09:17;98986.09;;;8.76;94.64
52983;BME280;48698;45.736;13.926;2023-02-14T18:14:23;98968.56;;;8.71;96.85
52983;BME280;48698;45.736;13.926;2023-02-14T18:19:27;98748.28;;;7.40;97.97
52983;BME280;48698;45.736;13.926;2023-02-14T18:24:31;98695.38;;;6.57;100.00
52983;BME280;48698;45.736;13.926;2023-02-14T18:29:34;98834.38;;;7.53;100.00
52983;BME280;48698;45.736;13.926;2023-02-14T18:34:38;98868.66;;;7.12;100.00
52983;BME280;48698;45.736;13.926;2023-02-14T18:39:42;98962.50;;;7.82;100.00
52983;BME280;48698;45.736;13.926;2023-02-14T18:44:46;98954.13;;;7.58;100.00
52983;BME280;48698;45.736;13.926;2023-02-14T18:49:49;98879.78;;;6.79;100.00
52983;BME280;48698;45.736;13.926;2023-02-14T18:54:54;98948.34;;;7.37;100.00
52983;BME280;48698;45.736;13.926;2023-02-14T19:00:02;98907.22;;;7.22;100.00
52983;BME280;48698;45.736;13.926;2023-02-14T19:05:09;98968.19;;;7.60;100.00
52983;BME280;48698;45.736;13.926;2023-02-14T19:10:12;98772.25;;;6.38;100.00
52983;BME280;48698;45.736;13.926;2023-02-14T19:15:16;98628.44;;;5.60;100.00
52983;BME280;48698;45.736;13.926;2023-02-14T19:20:23;98765.53;;;6.18;100.00
52983;BME280;48698;45.736;13.926;2023-02-14T19:25:38;98865.78;;;6.75;100.00
52983;BME280;48698;45.736;13.926;2023-02-14T19:30:42;98896.06;;;7.03;100.00
52983;BME280;48698;45.736;13.926;2023-02-14T19:35:45;98835.91;;;6.71;100.00
52983;BME280;48698;45.736;13.926;2023-02-14T19:40:50;98905.34;;;7.27;100.00
52983;BME280;48698;45.736;13.926;2023-02-14T19:45:53;98802.34;;;6.76;100.00
52983;BME280;48698;45.736;13.926;2023-02-14T19:50:57;98911.84;;;8.01;100.00
52983;BME280;48698;45.736;13.926;2023-02-14T19:56:09;98936.13;;;8.20;100.00
52983;BME280;48698;45.736;13.926;2023-02-14T20:01:30;98776.81;;;7.23;100.00
52983;BME280;48698;45.736;13.926;2023-02-14T20:06:35;98855.50;;;7.53;100.00
52983;BME280;48698;45.736;13.926;2023-02-14T20:11:41;98902.94;;;8.05;100.00
52983;BME280;48698;45.736;13.926;2023-02-14T20:16:54;98888.16;;;7.95;100.00
52983;BME280;48698;45.736;13.926;2023-02-14T20:21:59;98865.66;;;7.74;100.00
52983;BME280;48698;45.736;13.926;2023-02-14T20:27:03;98779.03;;;7.00;100.00
52983;BME280;48698;45.736;13.926;2023-02-14T20:32:08;98892.44;;;8.01;100.00
52983;BME280;48698;45.736;13.926;2023-02-14T20:37:12;98766.38;;;6.72;100.00
52983;BME280;48698;45.736;13.926;2023-02-14T20:42:15;98912.63;;;7.62;100.00
52983;BME280;48698;45.736;13.926;2023-02-14T20:47:19;98787.13;;;6.92;100.00
52983;BME280;48698;45.736;13.926;2023-02-14T20:52:23;98873.00;;;7.60;100.00
52983;BME280;48698;45.736;13.926;2023-02-14T20:57:29;98704.47;;;6.41;100.00
52983;BME280;48698;45.736;13.926;2023-02-14T21:02:32;98898.75;;;7.49;100.00
52983;BME280;48698;45.736;13.926;2023-02-14T21:07:36;98907.38;;;7.60;100.00
52983;BME280;48698;45.736;13.926;2023-02-14T21:12:40;98925.81;;;7.63;100.00
52983;BME280;48698;45.736;13.926;2023-02-14T21:17:44;98777.47;;;6.90;100.00
52983;BME280;48698;45.736;13.926;2023-02-14T21:22:47;98843.75;;;7.25;100.00
52983;BME280;48698;45.736;13.926;2023-02-14T21:27:58;98798.22;;;7.11;100.00
52983;BME280;48698;45.736;13.926;2023-02-14T21:33:01;98826.63;;;6.98;100.00
52983;BME280;48698;45.736;13.926;2023-02-14T21:38:06;98910.88;;;7.15;100.00
52983;BME280;48698;45.736;13.926;2023-02-14T21:43:09;98927.38;;;7.27;100.00
52983;BME280;48698;45.736;13.926;2023-02-14T21:48:13;98886.28;;;6.56;100.00
52983;BME280;48698;45.736;13.926;2023-02-14T21:53:35;98877.06;;;6.28;100.00
52983;BME280;48698;45.736;13.926;2023-02-14T21:58:39;98965.34;;;7.20;100.00
52983;BME280;48698;45.736;13.926;2023-02-14T22:03:43;98953.16;;;6.58;100.00
52983;BME280;48698;45.736;13.926;2023-02-14T22:08:57;98884.22;;;6.18;100.00
52983;BME280;48698;45.736;13.926;2023-02-14T22:14:01;98967.97;;;6.67;100.00
52983;BME280;48698;45.736;13.926;2023-02-14T22:19:07;98833.94;;;5.66;100.00
52983;BME280;48698;45.736;13.926;2023-02-14T22:24:11;98952.50;;;6.40;100.00
52983;BME280;48698;45.736;13.926;2023-02-14T22:29:22;98933.78;;;5.94;100.00
52983;BME280;48698;45.736;13.926;2023-02-14T22:34:26;98897.84;;;5.84;100.00
52983;BME280;48698;45.736;13.926;2023-02-14T22:39:30;98949.63;;;5.91;100.00
52983;BME280;48698;45.736;13.926;2023-02-14T22:44:34;98848.91;;;5.63;100.00
52983;BME280;48698;45.736;13.926;2023-02-14T22:49:38;98946.25;;;6.48;100.00
52983;BME280;48698;45.736;13.926;2023-02-14T22:54:41;98841.91;;;5.60;100.00
52983;BME280;48698;45.736;13.926;2023-02-14T22:59:45;98823.31;;;5.72;100.00
52983;BME280;48698;45.736;13.926;2023-02-14T23:04:50;98884.41;;;6.05;100.00
52983;BME280;48698;45.736;13.926;2023-02-14T23:10:05;98936.94;;;6.23;100.00
52983;BME280;48698;45.736;13.926;2023-02-14T23:15:10;98847.13;;;5.66;100.00
52983;BME280;48698;45.736;13.926;2023-02-14T23:20:46;98938.75;;;6.18;100.00
52983;BME280;48698;45.736;13.926;2023-02-14T23:26:08;98927.53;;;6.63;100.00
52983;BME280;48698;45.736;13.926;2023-02-14T23:31:12;98783.78;;;5.71;100.00
52983;BME280;48698;45.736;13.926;2023-02-14T23:36:16;98680.69;;;4.62;100.00
52983;BME280;48698;45.736;13.926;2023-02-14T23:41:20;98883.59;;;6.03;100.00
52983;BME280;48698;45.736;13.926;2023-02-14T23:46:42;98666.09;;;4.31;100.00
52983;BME280;48698;45.736;13.926;2023-02-14T23:51:47;98862.25;;;5.49;100.00
52983;BME280;48698;45.736;13.926;2023-02-14T23:57:03;98825.25;;;5.57;100.00
